Terminal Aerodrome Forecast
Issued by NWS

Home | Current Version | Previous Version | Text Only | Print | Product List | Glossary On
Versions: 1 2 3 4 5 6 7 8 9 10 11 12 13 14 15 16 17 18 19 20 21 22 23 24 25 26 27 28 29 30 31 32 33 34 35 36 37 38 39 40
000
FTAK31 PAFA 252044 AAA
TAFASC
TAF AMD
PASC 252044Z 2521/2618 26010KT 3SM -SN BR OVC010
     FM252300 20004KT P6SM FEW023 BKN050
     FM260100 20006KT P6SM SCT050
     FM260500 18004KT 2SM BR BKN015
     FM261100 18005KT P6SM SCT015=

USA.gov is the U.S. government's official web portal to all federal, state and local government web resources and services.